메인 페이지
METAR-TAF:

METAR-TAF

공항 :

벵갈루루 국제공항

벵갈루루, 인도

위도: 13-11-56N, 경도: 077-42-20E, 고도: 915m

현재 날씨관측

예보는 35분 전, 19:00시(UTC)에 발표되었습니다.
여러 방향의 바람 1kt
온도 18°C
습도 100%
기압 1019 hPa
시정: 6000m
고도 1500ft 상공 구름 조금

METAR: VOBL 301900Z VRB01KT 6000 FEW015 18/18 Q1019 NOSIG

시각: 01:05 (19:35 UTC)

예보

예보는 2 시간 35분 전, 17:00시(UTC)에 발표되었습니다.
예보 대상 시간: 30일 18시부터 01일 03시까지 (UTC)
5kt
시정: 6000m
고도 1500ft 상공 구름 보통
고도 8000ft 상공 구름 보통
전환 중
30일 20시부터 30일 21시까지 (UTC)
시정: 5000m
고도 1000ft 상공 구름 보통
고도 1200ft 상공 구름 보통
박무
전환 중
30일 23시부터 30일 24시까지 (UTC)
시정: 3000m
고도 800ft 상공 구름 보통
고도 1200ft 상공 구름 보통
박무
일시적
01일 00시부터 01일 03시까지 (UTC)
시정: 1000m
고도 500ft 상공 구름 많음
고도 1200ft 상공 구름 보통
낮은 안개

TAF: VOBL 301700Z 3018/0103 09005KT 6000 SCT015 SCT080 BECMG 3020/3021 5000 BR SCT010 SCT012 BECMG 3023/3024 3000 BR SCT008 SCT012 TEMPO 0100/0103 1000 MIFG BKN005 SCT012

4,000개 이상의 공항 관측 자료 및 예보 (METAR 및 TAF 보고).

지도상에서 검색 가능한 기상관측소가 노란 점과 빨간 점으로 표시되어 있습니다.

기상관측소 명을 보려면 표시 위로 마우스를 이동하세요.

날씨 관측과 예보를 보려면 클릭하세요.

지도 변경 : 확대하려면 엑스 표시가 있는 녹색 버튼, 축소하려면 빼기 표시가 있는 녹색 버튼, 다음 페이지의 지도를 보려면 녹색 화살표를 클릭하세요.


METAR-TAF: